Time;durP1;ratioP1;P1;durP2;ratioP2;P2;SDS_P1;SDS_P2;PMS_P1;PMS_P2;Temp;Humidity;BMP_temperature;BMP_pressure;BME280_temperature;BME280_humidity;BME280_pressure;Samples;Min_cycle;Max_cycle;Signal;HPM_P1;HPM_P2
2022/09/13 00:01:00;;;;;;;8.75;7.22;;;13.30;99.90;;;;;;2105813;28;20032;-73
2022/09/13 00:02:01;;;;;;;7.80;7.00;;;13.30;99.90;;;;;;2105555;28;20024;-73
2022/09/13 00:03:02;;;;;;;7.75;6.95;;;13.30;99.90;;;;;;2105847;28;20497;-73
2022/09/13 00:04:03;;;;;;;8.93;7.15;;;13.30;99.90;;;;;;2106061;28;20047;-73
2022/09/13 00:05:04;;;;;;;9.43;7.60;;;13.40;99.90;;;;;;2105044;28;20443;-72
2022/09/13 00:06:11;;;;;;;8.15;7.35;;;13.40;99.90;;;;;;2105441;28;20039;-73
2022/09/13 00:07:12;;;;;;;7.97;7.28;;;13.30;99.90;;;;;;2105880;28;20020;-73
2022/09/13 00:08:13;;;;;;;8.25;7.22;;;13.30;99.90;;;;;;2105938;28;20470;-73
2022/09/13 00:09:14;;;;;;;7.85;6.97;;;13.30;99.90;;;;;;2105496;28;20024;-73
2022/09/13 00:10:15;;;;;;;8.32;7.53;;;13.30;99.90;;;;;;2105365;28;20158;-73
2022/09/13 00:11:22;;;;;;;8.00;7.20;;;13.30;99.90;;;;;;2105891;28;20024;-72
2022/09/13 00:12:23;;;;;;;7.45;6.60;;;13.30;99.90;;;;;;2105673;28;20465;-72
2022/09/13 00:13:23;;;;;;;8.02;6.90;;;13.30;99.90;;;;;;2105536;28;20032;-72
2022/09/13 00:14:25;;;;;;;8.13;7.22;;;13.30;99.90;;;;;;2105902;28;20056;-72
2022/09/13 00:15:26;;;;;;;7.60;6.88;;;13.30;99.90;;;;;;2106077;28;20042;-72
2022/09/13 00:16:28;;;;;;;8.15;7.15;;;13.30;99.90;;;;;;2105387;28;20090;-72
2022/09/13 00:17:29;;;;;;;7.35;6.63;;;13.30;99.90;;;;;;2105339;28;20045;-72
2022/09/13 00:18:30;;;;;;;8.13;7.32;;;13.30;99.90;;;;;;2106131;28;20031;-72
2022/09/13 00:19:30;;;;;;;9.13;6.93;;;13.20;99.90;;;;;;2106238;28;20479;-72
2022/09/13 00:20:31;;;;;;;8.90;7.72;;;13.30;99.90;;;;;;2106140;28;20027;-72
2022/09/13 00:21:31;;;;;;;8.15;7.32;;;13.20;99.90;;;;;;2105779;28;20039;-72
2022/09/13 00:22:32;;;;;;;7.93;7.13;;;13.20;99.90;;;;;;2106267;28;20066;-71
2022/09/13 00:23:33;;;;;;;9.07;7.38;;;13.20;99.90;;;;;;2105090;28;20043;-71
2022/09/13 00:24:34;;;;;;;7.60;6.90;;;13.20;99.90;;;;;;2096858;28;20056;-72
2022/09/13 00:25:34;;;;;;;8.20;7.40;;;13.20;99.90;;;;;;2105183;28;20028;-73
2022/09/13 00:26:35;;;;;;;8.07;7.05;;;13.20;99.90;;;;;;2105703;28;20054;-72
2022/09/13 00:27:36;;;;;;;8.05;7.25;;;13.20;99.90;;;;;;2105474;28;20039;-73
2022/09/13 00:28:38;;;;;;;10.45;7.88;;;13.20;99.90;;;;;;2105934;28;20122;-73
2022/09/13 00:29:38;;;;;;;9.07;7.57;;;13.20;99.90;;;;;;2105171;28;20032;-73
2022/09/13 00:30:39;;;;;;;9.90;7.70;;;13.20;99.90;;;;;;2105502;28;20087;-72
2022/09/13 00:31:39;;;;;;;8.10;7.30;;;13.20;99.90;;;;;;2106089;28;20445;-72
2022/09/13 00:32:40;;;;;;;8.50;7.47;;;13.20;99.90;;;;;;2106002;28;20093;-72
2022/09/13 00:33:41;;;;;;;8.13;7.32;;;13.20;99.90;;;;;;2105644;28;20076;-73
2022/09/13 00:34:42;;;;;;;9.18;7.90;;;13.20;99.90;;;;;;2105595;28;20044;-72
2022/09/13 00:35:42;;;;;;;8.80;7.40;;;13.20;99.90;;;;;;2105560;28;20043;-73
2022/09/13 00:36:43;;;;;;;9.13;7.90;;;13.20;99.90;;;;;;2105719;28;20032;-73
2022/09/13 00:37:43;;;;;;;8.60;7.30;;;13.20;99.90;;;;;;2105675;28;20032;-72
2022/09/13 00:38:44;;;;;;;7.88;7.18;;;13.10;99.90;;;;;;2105373;28;20398;-72
2022/09/13 00:39:45;;;;;;;8.30;7.50;;;13.10;99.90;;;;;;2105462;28;20036;-73
2022/09/13 00:40:45;;;;;;;8.10;7.30;;;13.10;99.90;;;;;;2105659;28;20714;-73
2022/09/13 00:41:46;;;;;;;8.45;7.47;;;13.10;99.90;;;;;;2105242;28;20032;-72
2022/09/13 00:42:47;;;;;;;7.93;7.13;;;13.10;99.90;;;;;;2104837;28;20032;-73
2022/09/13 00:43:54;;;;;;;8.15;7.35;;;13.10;99.90;;;;;;2105030;28;20485;-72
2022/09/13 00:45:09;;;;;;;8.38;7.18;;;13.10;99.90;;;;;;2105407;28;20064;-72
2022/09/13 00:46:46;;;;;;;8.65;7.80;;;13.10;99.90;;;;;;2105373;28;20028;-73
2022/09/13 00:48:00;;;;;;;9.30;7.68;;;13.10;99.90;;;;;;2105355;28;20097;-73
2022/09/13 00:49:10;;;;;;;9.90;7.90;;;13.10;99.90;;;;;;2105184;28;20020;-72
2022/09/13 00:50:21;;;;;;;8.82;7.47;;;13.10;99.90;;;;;;2104777;28;20032;-72
2022/09/13 00:51:22;;;;;;;8.30;7.38;;;13.00;99.90;;;;;;2104452;28;20111;-73
2022/09/13 00:52:26;;;;;;;8.30;7.45;;;13.00;99.90;;;;;;2105394;28;20020;-72
2022/09/13 00:53:32;;;;;;;9.70;7.80;;;13.00;99.90;;;;;;2105398;28;20414;-72
2022/09/13 00:54:43;;;;;;;8.32;7.45;;;13.00;99.90;;;;;;2105150;28;20513;-73
2022/09/13 00:55:57;;;;;;;9.73;7.30;;;13.00;99.90;;;;;;2104750;28;20542;-72
2022/09/13 00:57:02;;;;;;;8.55;7.65;;;13.00;99.90;;;;;;2105266;28;20103;-73
2022/09/13 00:58:15;;;;;;;8.13;7.40;;;13.00;99.90;;;;;;2105461;28;20069;-73
2022/09/13 00:59:22;;;;;;;10.32;7.38;;;13.00;99.90;;;;;;2105295;28;20099;-73
2022/09/13 01:00:23;;;;;;;8.57;7.30;;;13.00;99.90;;;;;;2104954;28;20496;-73
2022/09/13 01:01:39;;;;;;;7.80;7.00;;;13.00;99.90;;;;;;2095900;28;20055;-73
2022/09/13 01:02:45;;;;;;;8.68;7.65;;;13.00;99.90;;;;;;2104865;28;20111;-73
2022/09/13 01:03:46;;;;;;;8.68;7.60;;;13.00;99.90;;;;;;2105378;28;20031;-73
2022/09/13 01:04:47;;;;;;;8.00;7.22;;;12.90;99.90;;;;;;2105366;28;20028;-73
2022/09/13 01:05:55;;;;;;;8.02;7.22;;;12.90;99.90;;;;;;2105637;28;20028;-73
2022/09/13 01:06:59;;;;;;;8.63;7.47;;;13.00;99.90;;;;;;2104690;28;20024;-73
2022/09/13 01:08:01;;;;;;;8.93;8.02;;;12.90;99.90;;;;;;2104817;28;20462;-73
2022/09/13 01:09:02;;;;;;;8.32;7.53;;;12.90;99.90;;;;;;2104070;28;20021;-73
2022/09/13 01:10:06;;;;;;;8.63;7.75;;;12.90;99.90;;;;;;2104801;28;20056;-73
2022/09/13 01:11:12;;;;;;;8.50;7.70;;;12.90;99.90;;;;;;2104804;28;20035;-73
2022/09/13 01:12:32;;;;;;;9.27;8.05;;;12.90;99.90;;;;;;2105332;28;20073;-73
2022/09/13 01:13:34;;;;;;;10.27;8.00;;;12.80;99.90;;;;;;2105157;28;20035;-73
2022/09/13 01:14:35;;;;;;;9.13;7.95;;;12.80;99.90;;;;;;2105223;28;20081;-72
2022/09/13 01:15:36;;;;;;;8.70;7.80;;;12.80;99.90;;;;;;2105462;28;20115;-72
2022/09/13 01:16:37;;;;;;;10.73;8.60;;;12.80;99.90;;;;;;2105353;28;20036;-72
2022/09/13 01:17:38;;;;;;;8.80;7.88;;;12.80;99.90;;;;;;2105284;28;20024;-72
2022/09/13 01:18:38;;;;;;;9.98;7.88;;;12.70;99.90;;;;;;2104987;28;20105;-73
2022/09/13 01:19:39;;;;;;;10.20;8.30;;;12.70;99.90;;;;;;2104498;28;20032;-73
2022/09/13 01:21:02;;;;;;;8.73;7.80;;;12.70;99.90;;;;;;2104672;28;20060;-72
2022/09/13 01:22:27;;;;;;;8.30;7.45;;;12.70;99.90;;;;;;2104147;28;20441;-72
2022/09/13 01:24:09;;;;;;;10.23;8.20;;;12.70;99.90;;;;;;2104777;28;20032;-72
2022/09/13 01:25:26;;;;;;;10.18;7.78;;;12.60;99.90;;;;;;2083666;28;20092;-72
2022/09/13 01:26:49;;;;;;;11.45;7.85;;;12.60;99.90;;;;;;2085529;28;20033;-71
2022/09/13 01:28:31;;;;;;;9.38;7.75;;;12.60;99.90;;;;;;2085507;28;20674;-72
2022/09/13 01:30:04;;;;;;;9.57;7.97;;;12.60;99.90;;;;;;2063510;28;20046;-72
2022/09/13 01:31:34;;;;;;;9.05;7.82;;;12.60;99.90;;;;;;2100897;28;20032;-72
2022/09/13 01:32:52;;;;;;;8.60;7.70;;;12.50;99.90;;;;;;2106740;28;20057;-72
2022/09/13 01:34:14;;;;;;;8.85;7.90;;;12.60;99.90;;;;;;2107601;28;20115;-72
2022/09/13 01:35:23;;;;;;;8.68;7.78;;;12.60;99.90;;;;;;2105321;28;20509;-72
2022/09/13 01:36:41;;;;;;;11.30;8.05;;;12.50;99.90;;;;;;2105256;28;20567;-72
2022/09/13 01:38:04;;;;;;;11.20;7.95;;;12.50;99.90;;;;;;2105235;28;20028;-72
2022/09/13 01:39:07;;;;;;;9.13;8.00;;;12.50;99.90;;;;;;2105549;28;20513;-71
2022/09/13 01:40:35;;;;;;;9.57;7.85;;;12.50;99.90;;;;;;2096155;28;20855;-72
2022/09/13 01:42:12;;;;;;;10.07;8.13;;;12.50;99.90;;;;;;2099708;28;20020;-72
2022/09/13 01:43:43;;;;;;;8.55;7.55;;;12.50;99.90;;;;;;2105016;28;20032;-71
2022/09/13 01:44:43;;;;;;;;;;;12.50;99.90;;;;;;2105949;28;20081;-72
2022/09/13 01:46:05;;;;;;;8.48;7.45;;;12.40;99.90;;;;;;2105482;28;19959;-72
2022/09/13 01:47:13;;;;;;;8.15;7.32;;;12.40;99.90;;;;;;2105514;28;20050;-72
2022/09/13 01:48:34;;;;;;;10.75;7.70;;;12.40;99.90;;;;;;2105150;28;20024;-72
2022/09/13 01:50:10;;;;;;;8.57;7.68;;;12.40;99.90;;;;;;2105485;28;20027;-73
2022/09/13 01:51:26;;;;;;;9.57;7.72;;;12.40;99.90;;;;;;2105354;28;20047;-72
2022/09/13 01:52:30;;;;;;;8.90;8.00;;;12.40;99.90;;;;;;2105762;28;20082;-71
2022/09/13 01:53:46;;;;;;;10.57;8.05;;;12.40;99.90;;;;;;2104842;28;20071;-71
2022/09/13 01:54:52;;;;;;;9.15;7.57;;;12.40;99.90;;;;;;2104773;28;20047;-73
2022/09/13 01:55:58;;;;;;;8.52;7.47;;;12.40;99.90;;;;;;2104821;28;20032;-73
2022/09/13 01:57:31;;;;;;;9.07;8.05;;;12.40;99.90;;;;;;2105447;28;20028;-73
2022/09/13 01:58:42;;;;;;;9.25;7.40;;;12.40;99.90;;;;;;2089536;28;20039;-72
2022/09/13 01:59:48;;;;;;;8.75;7.85;;;12.40;99.90;;;;;;2105401;28;20061;-71
2022/09/13 02:01:02;;;;;;;8.13;7.32;;;12.40;99.90;;;;;;2106680;28;20099;-72
2022/09/13 02:02:32;;;;;;;8.15;7.05;;;12.40;99.90;;;;;;2105143;28;20299;-72
2022/09/13 02:03:39;;;;;;;13.48;7.60;;;12.40;99.90;;;;;;2105088;28;20288;-71
2022/09/13 02:04:45;;;;;;;8.63;7.43;;;12.40;99.90;;;;;;2105988;28;20111;-71
2022/09/13 02:06:10;;;;;;;8.20;7.40;;;12.40;99.90;;;;;;2105944;28;20062;-71
2022/09/13 02:07:23;;;;;;;8.77;7.68;;;12.40;99.90;;;;;;2105088;28;20524;-71
2022/09/13 02:08:37;;;;;;;8.48;7.32;;;12.40;99.90;;;;;;2105400;28;20028;-72
2022/09/13 02:09:43;;;;;;;10.30;7.93;;;12.40;99.90;;;;;;2105385;28;20406;-72
2022/09/13 02:10:55;;;;;;;8.02;7.13;;;12.40;99.90;;;;;;2104776;28;20113;-71
2022/09/13 02:12:02;;;;;;;9.00;7.45;;;12.40;99.90;;;;;;2104876;28;20024;-71
2022/09/13 02:13:06;;;;;;;11.00;8.02;;;12.40;99.90;;;;;;2105196;28;20089;-71
2022/09/13 02:14:19;;;;;;;8.40;7.60;;;12.40;99.90;;;;;;2104949;28;20065;-71
2022/09/13 02:15:25;;;;;;;8.23;7.40;;;12.40;99.90;;;;;;2104951;28;20040;-72
2022/09/13 02:16:32;;;;;;;8.25;7.43;;;12.40;99.90;;;;;;2105054;28;20024;-71
2022/09/13 02:17:39;;;;;;;8.65;7.80;;;12.40;99.90;;;;;;2105040;28;20123;-71
2022/09/13 02:18:45;;;;;;;7.93;7.07;;;12.40;99.90;;;;;;2104266;28;20190;-72
2022/09/13 02:19:58;;;;;;;8.63;7.55;;;12.40;99.90;;;;;;2096849;28;20028;-71
2022/09/13 02:21:04;;;;;;;10.05;7.68;;;12.40;99.90;;;;;;2104720;28;20030;-71
2022/09/13 02:22:07;;;;;;;9.30;7.60;;;12.40;99.90;;;;;;2106387;28;20044;-71
2022/09/13 02:23:15;;;;;;;9.85;7.70;;;12.40;99.90;;;;;;2106787;28;20024;-72
2022/09/13 02:24:24;;;;;;;7.93;7.22;;;12.40;99.90;;;;;;2106682;28;20038;-71
2022/09/13 02:25:27;;;;;;;9.32;7.40;;;12.40;99.90;;;;;;2106972;28;20027;-71
2022/09/13 02:26:29;;;;;;;8.30;7.50;;;12.40;99.90;;;;;;2106593;28;20427;-71
2022/09/13 02:27:34;;;;;;;8.35;7.45;;;12.40;99.90;;;;;;2105916;28;20568;-72
2022/09/13 02:28:39;;;;;;;7.97;7.18;;;12.40;99.90;;;;;;2105960;28;20035;-72
2022/09/13 02:29:45;;;;;;;9.05;7.95;;;12.40;99.90;;;;;;2106501;28;20491;-72
2022/09/13 02:30:51;;;;;;;8.38;7.57;;;12.40;99.90;;;;;;2106634;28;20099;-72
2022/09/13 02:32:23;;;;;;;7.35;6.60;;;12.30;99.90;;;;;;2106507;28;20107;-72
2022/09/13 02:33:31;;;;;;;8.55;7.65;;;12.40;99.90;;;;;;2072351;28;20037;-72
2022/09/13 02:34:38;;;;;;;8.00;7.20;;;12.40;99.90;;;;;;2105704;28;20042;-71
2022/09/13 02:35:58;;;;;;;8.40;7.50;;;12.40;99.90;;;;;;2106501;28;20027;-71
2022/09/13 02:37:00;;;;;;;8.93;7.65;;;12.30;99.90;;;;;;2106542;28;20036;-71
2022/09/13 02:38:04;;;;;;;8.32;7.53;;;12.30;99.90;;;;;;2106476;28;20020;-71
2022/09/13 02:39:11;;;;;;;9.05;7.80;;;12.30;99.90;;;;;;2106485;28;20114;-71
2022/09/13 02:40:21;;;;;;;8.95;7.50;;;12.30;99.90;;;;;;2106356;28;20036;-71
2022/09/13 02:41:26;;;;;;;9.25;7.90;;;12.30;99.90;;;;;;2106586;28;20032;-72
2022/09/13 02:42:42;;;;;;;9.40;8.40;;;12.30;99.90;;;;;;2106636;28;20039;-72
2022/09/13 02:43:49;;;;;;;9.65;8.65;;;12.30;99.90;;;;;;2106730;28;20112;-72
2022/09/13 02:44:57;;;;;;;9.25;8.35;;;12.20;99.90;;;;;;2106222;28;20032;-72
2022/09/13 02:46:26;;;;;;;9.70;8.70;;;12.30;99.90;;;;;;2105869;28;20036;-72
2022/09/13 02:47:57;;;;;;;10.02;9.00;;;12.20;99.90;;;;;;2106014;28;20020;-72
2022/09/13 02:49:24;;;;;;;10.57;9.48;;;12.20;99.90;;;;;;2106285;28;20547;-72
2022/09/13 02:51:01;;;;;;;9.88;8.80;;;12.20;99.90;;;;;;2097949;28;20531;-71
2022/09/13 02:52:30;;;;;;;10.73;8.52;;;12.10;99.90;;;;;;2105820;28;20074;-73
2022/09/13 02:53:42;;;;;;;9.75;8.38;;;12.20;99.90;;;;;;2106334;28;20765;-71
2022/09/13 02:55:00;;;;;;;9.70;8.70;;;12.10;99.90;;;;;;2105678;28;20038;-72
2022/09/13 02:56:10;;;;;;;9.38;8.48;;;12.10;99.90;;;;;;2105854;28;20124;-72
2022/09/13 02:57:18;;;;;;;9.57;8.32;;;12.10;99.90;;;;;;2106354;28;20030;-72
2022/09/13 02:58:35;;;;;;;9.65;8.20;;;12.10;99.90;;;;;;2106328;28;20024;-72
2022/09/13 02:59:35;;;;;;;9.13;7.72;;;12.10;99.90;;;;;;2105414;28;20128;-71
2022/09/13 03:00:36;;;;;;;8.60;7.80;;;12.10;99.90;;;;;;2097365;28;20418;-71
2022/09/13 03:01:38;;;;;;;9.38;8.15;;;12.10;99.90;;;;;;2097155;28;20047;-71
2022/09/13 03:02:42;;;;;;;8.63;7.72;;;12.10;99.90;;;;;;2105580;28;20071;-71
2022/09/13 03:03:43;;;;;;;8.95;7.63;;;12.10;99.90;;;;;;2106408;28;20097;-71
2022/09/13 03:04:44;;;;;;;9.27;8.30;;;12.10;99.90;;;;;;2106366;28;20077;-71
2022/09/13 03:05:51;;;;;;;9.00;7.88;;;12.10;99.90;;;;;;2105904;28;20043;-72
2022/09/13 03:06:52;;;;;;;8.07;7.28;;;12.00;99.90;;;;;;2105815;28;20024;-72
2022/09/13 03:07:53;;;;;;;9.43;8.10;;;12.00;99.90;;;;;;2097226;28;20120;-72
2022/09/13 03:08:57;;;;;;;8.68;7.78;;;12.00;99.90;;;;;;2097318;28;20025;-71
2022/09/13 03:10:04;;;;;;;8.40;7.60;;;12.00;99.90;;;;;;2105626;28;20024;-72
2022/09/13 03:11:32;;;;;;;9.00;7.63;;;12.00;99.90;;;;;;2105614;28;20115;-72
2022/09/13 03:12:45;;;;;;;10.63;7.93;;;12.00;99.90;;;;;;2105524;28;20521;-71
2022/09/13 03:14:16;;;;;;;9.20;7.90;;;12.00;99.90;;;;;;2106487;28;20078;-72
2022/09/13 03:15:26;;;;;;;10.40;8.30;;;12.00;99.90;;;;;;2106176;28;20543;-72
2022/09/13 03:16:58;;;;;;;8.90;8.00;;;12.00;99.90;;;;;;2106112;28;20097;-72
2022/09/13 03:18:23;;;;;;;10.05;7.97;;;12.00;99.90;;;;;;2106219;28;20039;-72
2022/09/13 03:19:35;;;;;;;11.02;8.25;;;11.90;99.90;;;;;;2105971;28;20494;-72
2022/09/13 03:20:57;;;;;;;8.80;7.90;;;11.90;99.90;;;;;;2105531;28;20032;-71
2022/09/13 03:22:21;;;;;;;10.25;8.95;;;11.90;99.90;;;;;;2105460;28;20029;-72
2022/09/13 03:23:38;;;;;;;9.73;8.73;;;12.00;99.90;;;;;;2105674;28;20032;-72
2022/09/13 03:25:08;;;;;;;9.38;8.48;;;11.90;99.90;;;;;;2105580;28;20386;-72
2022/09/13 03:26:37;;;;;;;9.73;8.35;;;12.00;99.90;;;;;;2105644;28;20024;-72
2022/09/13 03:27:57;;;;;;;9.73;8.68;;;12.00;99.90;;;;;;2092759;28;20037;-72
2022/09/13 03:29:20;;;;;;;10.20;8.60;;;12.00;99.90;;;;;;2105748;28;20603;-71
2022/09/13 03:30:20;;;;;;;11.90;9.15;;;12.00;99.90;;;;;;2106330;28;20072;-72
2022/09/13 03:31:36;;;;;;;11.90;9.00;;;12.00;99.90;;;;;;2106552;28;20482;-72
2022/09/13 03:32:49;;;;;;;10.02;9.02;;;12.00;99.90;;;;;;2106328;28;20028;-72
2022/09/13 03:34:37;;;;;;;10.05;9.05;;;12.00;99.90;;;;;;2107537;28;20028;-72
2022/09/13 03:36:02;;;;;;;9.95;8.90;;;12.00;99.90;;;;;;2104628;28;20044;-71
2022/09/13 03:37:31;;;;;;;10.55;8.90;;;12.10;99.90;;;;;;2107444;28;20035;-70
2022/09/13 03:38:45;;;;;;;10.80;8.93;;;12.10;99.90;;;;;;2106923;28;20032;-71
2022/09/13 03:39:52;;;;;;;9.82;8.38;;;12.10;99.90;;;;;;2107732;28;20032;-71
2022/09/13 03:41:03;;;;;;;9.50;8.27;;;12.10;99.90;;;;;;2106232;28;20025;-73
2022/09/13 03:42:13;;;;;;;9.50;8.18;;;12.20;99.90;;;;;;2106525;28;20028;-72
2022/09/13 03:43:35;;;;;;;9.10;8.20;;;12.10;99.90;;;;;;2107217;28;20071;-72
2022/09/13 03:44:37;;;;;;;9.20;8.27;;;12.20;99.90;;;;;;2108499;28;20699;-73
2022/09/13 03:45:43;;;;;;;9.93;8.43;;;12.20;99.90;;;;;;2108139;28;20016;-72
2022/09/13 03:46:47;;;;;;;10.23;8.18;;;12.30;99.90;;;;;;2108150;28;20026;-71
2022/09/13 03:47:49;;;;;;;9.35;8.32;;;12.30;99.90;;;;;;2107900;28;20070;-71
2022/09/13 03:48:51;;;;;;;8.80;7.70;;;12.30;99.90;;;;;;2108051;28;20020;-71
2022/09/13 03:49:53;;;;;;;9.32;8.02;;;12.30;99.90;;;;;;2107631;28;20055;-71
2022/09/13 03:50:54;;;;;;;9.00;8.10;;;12.30;99.90;;;;;;2108000;28;20468;-71
2022/09/13 03:51:56;;;;;;;8.68;7.82;;;12.40;99.90;;;;;;2108360;28;20016;-71
2022/09/13 03:53:06;;;;;;;8.23;7.43;;;12.40;99.90;;;;;;2108817;28;20032;-71
2022/09/13 03:54:13;;;;;;;11.25;7.90;;;12.40;99.90;;;;;;2107901;28;20103;-71
2022/09/13 03:55:16;;;;;;;8.93;7.57;;;12.40;99.90;;;;;;2107305;28;20054;-71
2022/09/13 03:56:19;;;;;;;8.48;7.63;;;12.40;99.90;;;;;;2106186;28;20394;-71
2022/09/13 03:57:21;;;;;;;10.02;7.80;;;12.40;99.90;;;;;;2105151;28;20036;-71
2022/09/13 03:58:24;;;;;;;8.25;7.35;;;12.40;99.90;;;;;;2105253;28;20028;-71
2022/09/13 03:59:25;;;;;;;10.30;7.80;;;12.40;99.90;;;;;;2105703;28;20040;-71
2022/09/13 04:00:26;;;;;;;8.75;7.85;;;12.40;99.90;;;;;;2105848;28;20020;-71
2022/09/13 04:01:27;;;;;;;9.43;7.65;;;12.40;99.90;;;;;;2105734;28;20032;-71
2022/09/13 04:02:27;;;;;;;8.63;7.82;;;12.40;99.90;;;;;;2096861;28;20029;-71
2022/09/13 04:03:28;;;;;;;8.73;7.82;;;12.40;99.90;;;;;;2096873;28;20024;-71
2022/09/13 04:04:29;;;;;;;9.10;7.80;;;12.40;99.90;;;;;;2105889;28;20036;-71
2022/09/13 04:05:30;;;;;;;8.13;7.25;;;12.40;99.90;;;;;;2104914;28;20082;-71
2022/09/13 04:06:30;;;;;;;8.38;7.57;;;12.40;99.90;;;;;;2105273;28;20071;-70
2022/09/13 04:07:31;;;;;;;8.20;7.40;;;12.40;99.90;;;;;;2105807;28;20024;-72
2022/09/13 04:08:32;;;;;;;8.02;7.18;;;12.30;99.90;;;;;;2105781;28;20028;-71
2022/09/13 04:09:33;;;;;;;8.85;7.30;;;12.40;99.90;;;;;;2105810;28;20493;-71
2022/09/13 04:10:35;;;;;;;8.10;7.30;;;12.30;99.90;;;;;;2105081;28;20034;-71
2022/09/13 04:11:36;;;;;;;9.88;7.68;;;12.30;99.90;;;;;;2104995;28;20059;-71
2022/09/13 04:12:37;;;;;;;8.70;7.55;;;12.30;99.90;;;;;;2105218;28;20028;-70
2022/09/13 04:13:38;;;;;;;8.65;7.75;;;12.30;99.90;;;;;;2096757;28;20029;-71
2022/09/13 04:14:39;;;;;;;8.85;7.80;;;12.30;99.90;;;;;;2105048;28;20521;-71
2022/09/13 04:15:39;;;;;;;8.70;7.78;;;12.30;99.90;;;;;;2105897;28;20056;-71
2022/09/13 04:16:40;;;;;;;12.00;8.30;;;12.30;99.90;;;;;;2105596;28;20699;-69
2022/09/13 04:17:41;;;;;;;9.73;8.45;;;12.30;99.90;;;;;;2105084;28;20051;-70
2022/09/13 04:18:42;;;;;;;10.00;9.00;;;12.20;99.90;;;;;;2104871;28;20061;-74
2022/09/13 04:19:44;;;;;;;10.43;8.55;;;12.20;99.90;;;;;;2105452;28;20028;-70
2022/09/13 04:20:56;;;;;;;9.60;8.70;;;12.20;99.90;;;;;;2105646;28;20051;-71
2022/09/13 04:21:56;;;;;;;9.88;8.85;;;12.20;99.90;;;;;;2105439;28;20552;-71
2022/09/13 04:22:57;;;;;;;9.43;8.45;;;12.20;99.90;;;;;;2105517;28;20105;-71
2022/09/13 04:23:58;;;;;;;10.02;8.48;;;12.10;99.90;;;;;;2105398;28;20039;-71
2022/09/13 04:24:59;;;;;;;9.80;8.65;;;12.10;99.90;;;;;;2105292;28;20040;-70
2022/09/13 04:26:03;;;;;;;10.13;9.02;;;12.10;99.90;;;;;;2105409;28;20036;-70
2022/09/13 04:27:04;;;;;;;9.95;8.52;;;12.20;99.90;;;;;;2104868;28;20023;-71
2022/09/13 04:28:05;;;;;;;10.95;8.95;;;12.10;99.90;;;;;;2104785;28;20559;-71
2022/09/13 04:29:06;;;;;;;10.38;8.60;;;12.10;99.90;;;;;;2105074;28;20012;-70
2022/09/13 04:30:07;;;;;;;9.48;8.38;;;12.10;99.90;;;;;;2105402;28;20051;-70
2022/09/13 04:31:08;;;;;;;9.57;8.15;;;12.10;99.90;;;;;;2105489;28;20544;-70
2022/09/13 04:32:09;;;;;;;9.27;8.38;;;12.10;99.90;;;;;;2105392;28;20020;-71
2022/09/13 04:33:11;;;;;;;11.35;8.75;;;12.10;99.90;;;;;;2104828;28;20039;-71
2022/09/13 04:34:11;;;;;;;9.60;8.15;;;12.10;99.90;;;;;;2104657;28;20482;-70
2022/09/13 04:35:12;;;;;;;11.93;8.90;;;12.10;99.90;;;;;;2105341;28;20111;-70
2022/09/13 04:36:13;;;;;;;10.85;8.40;;;12.10;99.90;;;;;;2105394;28;20059;-70
2022/09/13 04:37:14;;;;;;;9.27;8.20;;;12.10;99.90;;;;;;2105359;28;20125;-70
2022/09/13 04:38:15;;;;;;;10.27;8.57;;;12.10;99.90;;;;;;2105293;28;20036;-71
2022/09/13 04:39:16;;;;;;;8.98;8.07;;;12.10;99.90;;;;;;2105171;28;20024;-70
2022/09/13 04:40:17;;;;;;;8.63;7.72;;;12.10;99.90;;;;;;2105237;28;20031;-70
2022/09/13 04:41:17;;;;;;;10.57;8.50;;;12.10;99.90;;;;;;2104395;28;20682;-72
2022/09/13 04:42:18;;;;;;;11.20;8.40;;;12.10;99.90;;;;;;2096184;28;20055;-70
2022/09/13 04:43:19;;;;;;;10.95;8.23;;;12.10;99.90;;;;;;2104628;28;20024;-70
2022/09/13 04:44:20;;;;;;;9.73;8.50;;;12.10;99.90;;;;;;2104550;28;20035;-71
2022/09/13 04:45:21;;;;;;;10.23;8.45;;;12.10;99.90;;;;;;2105370;28;20031;-71
2022/09/13 04:46:22;;;;;;;10.40;8.98;;;12.20;99.90;;;;;;2105392;28;20054;-72
2022/09/13 04:47:23;;;;;;;10.95;8.80;;;12.20;99.90;;;;;;2105769;28;20206;-72
2022/09/13 04:48:23;;;;;;;9.85;8.57;;;12.20;99.90;;;;;;2104852;28;20051;-71
2022/09/13 04:49:24;;;;;;;9.80;8.57;;;12.20;99.90;;;;;;2104886;28;20028;-72
2022/09/13 04:50:25;;;;;;;9.52;8.52;;;12.20;99.90;;;;;;2105738;28;20115;-72
2022/09/13 04:51:25;;;;;;;9.27;8.07;;;12.20;99.90;;;;;;2104745;28;20355;-71
2022/09/13 04:52:26;;;;;;;10.40;8.77;;;12.20;99.90;;;;;;2104983;28;20024;-72
2022/09/13 04:53:27;;;;;;;11.57;8.32;;;12.30;99.90;;;;;;2105886;28;20024;-71
2022/09/13 04:54:28;;;;;;;9.80;8.75;;;12.30;99.90;;;;;;2104647;28;20027;-72
2022/09/13 04:55:29;;;;;;;10.02;8.70;;;12.30;99.90;;;;;;2104837;28;20074;-71
2022/09/13 04:56:30;;;;;;;10.20;8.35;;;12.30;99.90;;;;;;2105336;28;20062;-71
2022/09/13 04:57:30;;;;;;;9.82;8.82;;;12.30;99.90;;;;;;2105729;28;20544;-71
2022/09/13 04:58:31;;;;;;;10.80;8.32;;;12.40;99.90;;;;;;2105242;28;20477;-71
2022/09/13 04:59:32;;;;;;;9.93;8.50;;;12.40;99.90;;;;;;2105347;28;20042;-71
2022/09/13 05:00:34;;;;;;;9.23;8.32;;;12.40;99.90;;;;;;2105454;28;20034;-72
2022/09/13 05:01:35;;;;;;;10.55;8.23;;;12.50;99.90;;;;;;2105091;28;20561;-71
2022/09/13 05:02:35;;;;;;;10.52;8.30;;;12.40;99.90;;;;;;2104660;28;20028;-71
2022/09/13 05:03:37;;;;;;;9.20;8.10;;;12.50;99.90;;;;;;2104710;28;20031;-71
2022/09/13 05:04:37;;;;;;;9.32;8.30;;;12.50;99.90;;;;;;2105235;28;20024;-71
2022/09/13 05:05:38;;;;;;;8.82;7.93;;;12.50;99.90;;;;;;2104521;28;20107;-73
2022/09/13 05:06:39;;;;;;;9.27;8.38;;;12.50;99.90;;;;;;2104782;28;20059;-71
2022/09/13 05:07:39;;;;;;;9.07;8.10;;;12.50;99.90;;;;;;2104653;28;20046;-71
2022/09/13 05:08:40;;;;;;;8.68;7.78;;;12.60;99.90;;;;;;2104459;28;20769;-71
2022/09/13 05:09:40;;;;;;;9.48;8.13;;;12.60;99.90;;;;;;2104437;28;20103;-70
2022/09/13 05:10:41;;;;;;;9.57;8.55;;;12.60;99.90;;;;;;2104595;28;20186;-72
2022/09/13 05:11:42;;;;;;;9.50;8.20;;;12.70;99.90;;;;;;2104896;28;20506;-71
2022/09/13 05:12:42;;;;;;;9.15;7.57;;;12.70;99.90;;;;;;2104971;28;20032;-71
2022/09/13 05:13:43;;;;;;;9.88;8.10;;;12.70;99.90;;;;;;2104658;28;20024;-71
2022/09/13 05:14:44;;;;;;;9.20;8.20;;;12.70;99.90;;;;;;2104507;28;20624;-71
2022/09/13 05:15:46;;;;;;;9.27;7.93;;;12.70;99.90;;;;;;2105149;28;20413;-70
2022/09/13 05:16:46;;;;;;;8.70;7.80;;;12.80;99.90;;;;;;2105244;28;20031;-71
2022/09/13 05:17:47;;;;;;;9.95;7.65;;;12.80;99.90;;;;;;2105130;28;20478;-70
2022/09/13 05:18:49;;;;;;;9.00;7.90;;;12.80;99.90;;;;;;2105449;28;20043;-70
2022/09/13 05:19:49;;;;;;;8.82;7.78;;;12.80;99.90;;;;;;2105176;28;20032;-70
2022/09/13 05:20:53;;;;;;;9.68;8.38;;;12.90;99.90;;;;;;2104880;28;20035;-70
2022/09/13 05:21:54;;;;;;;9.77;8.27;;;12.90;99.90;;;;;;2088016;28;20133;-70
2022/09/13 05:22:55;;;;;;;9.30;7.88;;;12.90;99.90;;;;;;2096247;28;20028;-70
2022/09/13 05:23:56;;;;;;;8.52;7.63;;;12.90;99.90;;;;;;2104556;28;20119;-73
2022/09/13 05:24:57;;;;;;;8.55;7.72;;;13.00;99.90;;;;;;2104442;28;20031;-70
2022/09/13 05:26:00;;;;;;;8.40;7.50;;;13.00;99.90;;;;;;2105457;28;20051;-70
2022/09/13 05:27:00;;;;;;;8.85;7.95;;;13.00;99.90;;;;;;2104797;28;20126;-71
2022/09/13 05:28:01;;;;;;;11.55;8.00;;;13.10;99.90;;;;;;2104678;28;20827;-71
2022/09/13 05:29:03;;;;;;;9.15;8.13;;;13.10;99.90;;;;;;2104586;28;20020;-71
2022/09/13 05:30:05;;;;;;;10.27;8.02;;;13.10;99.90;;;;;;2105116;28;20390;-71
2022/09/13 05:31:10;;;;;;;9.55;8.18;;;13.10;99.90;;;;;;2105371;28;20118;-70
2022/09/13 05:32:10;;;;;;;10.10;8.02;;;13.20;99.90;;;;;;2104423;28;20106;-71
2022/09/13 05:33:11;;;;;;;10.68;8.20;;;13.30;99.90;;;;;;2104502;28;20039;-71
2022/09/13 05:34:15;;;;;;;9.10;7.88;;;13.30;99.90;;;;;;2105005;28;20035;-71
2022/09/13 05:35:15;;;;;;;10.00;8.00;;;13.30;99.90;;;;;;2104936;28;20028;-70
2022/09/13 05:36:17;;;;;;;11.98;8.63;;;13.40;99.90;;;;;;2104943;28;20562;-70
2022/09/13 05:37:17;;;;;;;10.80;8.05;;;13.40;99.90;;;;;;2104367;28;20448;-71
2022/09/13 05:38:18;;;;;;;11.40;8.90;;;13.40;99.90;;;;;;2104385;28;20032;-71
2022/09/13 05:39:21;;;;;;;11.15;9.15;;;13.50;99.90;;;;;;2104885;28;20098;-71
2022/09/13 05:40:21;;;;;;;10.98;9.18;;;13.50;99.90;;;;;;2104850;28;20054;-71
2022/09/13 05:41:22;;;;;;;10.07;8.40;;;13.60;99.90;;;;;;2104197;28;20056;-71
2022/09/13 05:42:23;;;;;;;9.40;8.27;;;13.60;99.90;;;;;;2104880;28;20059;-72
2022/09/13 05:43:26;;;;;;;11.98;8.45;;;13.60;99.90;;;;;;2104935;28;20028;-72
2022/09/13 05:44:27;;;;;;;10.90;8.63;;;13.70;99.90;;;;;;2104881;28;20031;-72
2022/09/13 05:45:28;;;;;;;10.10;8.25;;;13.80;99.90;;;;;;2104303;28;20487;-72
2022/09/13 05:46:28;;;;;;;10.18;8.20;;;13.80;99.90;;;;;;2104249;28;20028;-72
2022/09/13 05:47:29;;;;;;;10.48;8.18;;;13.80;99.90;;;;;;2104766;28;20035;-71
2022/09/13 05:48:30;;;;;;;11.35;8.73;;;13.90;99.90;;;;;;2105230;28;20059;-71